x

Columbia River Bar - 20nm West Of Columbia River Mouth (46029) Wave Buoy

9:50 - Sun 28th May 2017 All times are PDT. -7 hours from GMT.

  • Sig Wave height 3.6ft
  • Swell Direction
  • Peak Period 11s
  • Average Period 7s
  • Wind
    2mph, 2mph gusts
  • Sea Temp 55°f
  • Luft Temp 52°f
  • Sea Pressure 1021.4mb
  • Columbia River Bar - 20nm West Of Columbia River Mouth
  • Columbia River Bar - 20nm West Of Columbia River Mouth

More Historic Weather Station data

Upgrade to MSW Pro to gain access to the past 30 days of data for over 8000 Wavebouys and Weather Stations around the globe.

Join Pro

Comparision Forecast

View Surf forecast
   
So 05/28 9:50 3.5ft 11s 7s 2 2 mph 1021.4mb 55f 52f
8:50 4.5ft 11s 8s 4 7 mph 1021.2mb 54f 52f
7:50 4ft 10s 8s 4 7 mph 1021mb 55f 52f
6:50 4.5ft 10s 7s  -  4 mph 1020.9mb 55f 52f
5:50 4.5ft 10s 7s 4 7 mph 1020.7mb 55f 52f
4:50 4.5ft 11s 7s 7 9 mph 1020.4mb 55f 52f
3:50 4.5ft 11s 7s 2 4 mph 1020.5mb 56f 52f
2:50 5ft 8s 7s 2 7 mph 1020.5mb 55f 52f
1:50 5ft 11s 7s 2 4 mph 1020.4mb 56f 52f
12:50 5ft 9s 8s 2 7 mph 1020.3mb 56f 52f
Sa 05/27 11:50 5ft 10s 7s  -  2 mph 1020.2mb 55f 52f
10:50 5ft 11s 7s 4 7 mph 1019.8mb 55f 52f
9:50 5ft 10s 7s 9 13 mph 1019.9mb 55f 53f
8:50 5ft 11s 7s 9 11 mph 1019.5mb 55f 53f
7:50 5ft 11s 8s 7 11 mph 1019.4mb 56f 53f
6:50 5ft 9s 8s 9 11 mph 1019.4mb 56f 53f
5:50 5ft 8s 8s 11 13 mph 1019.7mb 56f 53f
4:50 5ft 11s 8s 9 13 mph 1019.6mb 56f 53f
3:50 5ft 11s 8s 9 11 mph 1019.7mb 56f 52f
2:50 5.5ft 11s 8s 9 11 mph 1019.7mb 56f 53f
1:50 5ft 9s 7s 7 11 mph 1020mb 56f 52f
12:50 5.5ft 9s 8s 4 9 mph 1020.1mb 56f 52f
11:50 6ft 9s 8s 4 9 mph 1020.2mb 56f 51f
10:50 5.5ft 10s 7s 2 4 mph 1020.1mb 55f 51f
9:50 6ft 9s 8s 4 7 mph 1020.1mb 55f 51f
8:50 6ft 9s 7s 4 7 mph 1020.1mb 55f 50f
7:50 5.5ft 9s 7s 4 9 mph 1019.5mb 54f 51f
6:50 6ft 10s 7s 7 11 mph 1019mb 54f 50f
5:50 6ft 9s 7s 11 16 mph 1018mb 55f 51f
4:50 5.5ft 10s 7s 11 16 mph 1017.7mb 55f 51f
3:50 6.5ft 10s 7s 13 18 mph 1017.4mb 56f 51f
2:50 6.5ft 9s 7s 11 16 mph 1017.5mb 56f 51f
1:50 6.5ft 9s 8s 11 16 mph 1017.2mb 56f 51f
12:50 6ft 10s 7s 11 13 mph 1017.2mb 55f 51f
Fr 05/26 11:50 6ft 10s 7s 11 16 mph 1017.1mb 55f 51f
10:50 6ft 10s 7s 13 16 mph 1017mb 55f 52f
9:50 5.5ft 9s 6s 13 16 mph 1016.9mb 55f 52f
8:50 6ft 9s 6s 13 18 mph 1016.7mb 55f 52f
7:50 6ft 9s 6s 18 20 mph 1016.3mb 55f 53f
6:50 6.5ft 10s 7s 18 20 mph 1016.1mb 55f 54f
5:50 7ft 9s 7s 18 20 mph 1016.1mb 56f 54f
4:50 6.5ft 9s 6s 18 20 mph 1015.8mb 56f 55f
3:50 7.5ft 9s 7s 18 20 mph 1015.5mb 56f 55f
2:50 6ft 9s 6s 18 22 mph 1015.5mb 56f 55f
1:50 8ft 9s 7s 18 20 mph 1015.4mb 56f 54f
12:50 7ft 9s 7s 18 20 mph 1015.3mb 56f 53f
11:50 7ft 10s 8s 16 18 mph 1015.2mb 56f 53f
10:50 6.5ft 10s 8s 13 16 mph 1015mb 55f 55f
9:50 5.5ft 9s 7s 9 11 mph 1014.8mb 55f 52f
8:50 7ft 10s 8s 9 13 mph 1014.8mb 55f 51f
7:50 6.5ft 10s 7s 11 13 mph 1014.5mb 55f 54f
6:50 7.5ft 10s 8s 13 18 mph 1013.9mb 55f 54f
5:50 7.5ft 10s 8s 13 16 mph 1013.5mb 54f 54f
4:50 8ft 10s 8s 13 16 mph 1013.3mb 54f 54f
3:50 8ft 10s 8s 11 13 mph 1013.4mb 54f 54f
2:50 9.5ft 10s 8s 13 18 mph 1013.1mb 54f 54f
1:50 8.5ft 9s 8s 11 13 mph 1012.9mb 55f 54f
12:50 10ft 10s 8s 13 16 mph 1012.7mb 55f 54f
Do 05/25 11:50 9ft 11s 8s 13 16 mph 1012.7mb 55f 54f
10:50 8ft 10s 8s 13 18 mph 1012.7mb 55f 54f
9:50 9.5ft 10s 8s 16 18 mph 1012.4mb 56f 54f
8:50 8.5ft 10s 8s 16 18 mph 1011.9mb 56f 54f
7:50 8ft 11s 8s 13 18 mph 1011.8mb 55f 54f
6:50 9ft 10s 8s 16 18 mph 1011.8mb 54f 54f
5:50 8.5ft 10s 8s 16 20 mph 1011.7mb 54f 54f
4:50 8ft 11s 8s 16 20 mph 1011.8mb 55f 54f
3:50 9ft 11s 8s 13 18 mph 1012.4mb 54f 54f
2:50 10ft 11s 8s 13 16 mph 1012.7mb 54f 54f
1:50 10.5ft 11s 8s 11 13 mph 1012.8mb 55f 53f
12:50 11ft 11s 8s 9 13 mph 1013.2mb 55f 53f
11:50 10.5ft 11s 8s 9 11 mph 1013.3mb 54f 53f
10:50 11ft 11s 9s 7 11 mph 1013.5mb 54f 53f
9:50 12ft 10s 8s 7 9 mph 1013.8mb 53f 53f
8:50 11ft 11s 8s 7 9 mph 1013.9mb 53f 53f
7:50 10.5ft 10s 8s 4 7 mph 1013.9mb 53f 53f
6:50 12ft 11s 8s 4 7 mph 1013.9mb 53f 53f
5:50 11ft 11s 8s 4 7 mph 1013.8mb 53f 53f
4:50 10.5ft 10s 8s 7 9 mph 1013.8mb 53f 53f
3:50 10ft 10s 8s 9 13 mph 1013.8mb 54f 53f
2:50 10.5ft 11s 8s 11 13 mph 1013.7mb 53f 53f
1:50 10ft 10s 8s 9 11 mph 1014mb 53f 53f
12:50 10.5ft 10s 8s 9 11 mph 1014.6mb 53f 53f
Mi 05/24 11:50 12ft 9s 8s 13 16 mph 1014.8mb 54f 53f
10:50 10ft 10s 8s 13 18 mph 1015.3mb 54f 53f
9:50 10ft 10s 8s 18 20 mph 1015.2mb 54f 53f
8:50 9ft 10s 7s 18 20 mph 1015.5mb 54f 53f
7:50 9ft 10s 7s 18 22 mph 1015.7mb 54f 53f
6:50 8ft 9s 7s 20 22 mph 1016.1mb 54f 53f